createdAt,value
2023-03-05T00:01:14.618Z,20.87
2023-03-05T00:03:41.923Z,20.10
2023-03-05T00:06:09.234Z,20.13
2023-03-05T00:08:36.408Z,20.80
2023-03-05T00:11:07.360Z,20.87
2023-03-05T00:13:34.765Z,21.53
2023-03-05T00:16:10.754Z,18.93
2023-03-05T00:18:38.671Z,20.80
2023-03-05T00:21:18.151Z,20.03
2023-03-05T00:23:45.238Z,21.83
2023-03-05T00:26:12.183Z,19.73
2023-03-05T00:28:41.296Z,21.80
2023-03-05T00:31:08.416Z,20.00
2023-03-05T00:33:35.467Z,21.73
2023-03-05T00:36:06.706Z,19.83
2023-03-05T00:38:34.533Z,19.87
2023-03-05T00:41:02.112Z,19.57
2023-03-05T00:43:29.581Z,19.57
2023-03-05T00:45:56.574Z,18.83
2023-03-05T00:48:23.585Z,18.60
2023-03-05T00:50:50.567Z,20.23
2023-03-05T00:53:17.854Z,19.93
2023-03-05T00:55:44.870Z,18.17
2023-03-05T00:58:11.888Z,19.33
2023-03-05T01:00:38.847Z,17.50
2023-03-05T01:03:06.013Z,19.93
2023-03-05T01:05:33.234Z,19.83
2023-03-05T01:08:00.324Z,18.90
2023-03-05T01:10:27.474Z,18.27
2023-03-05T01:12:55.528Z,20.40
2023-03-05T01:15:23.659Z,21.00
2023-03-05T01:17:50.888Z,18.97
2023-03-05T01:20:20.095Z,17.87
2023-03-05T01:22:47.033Z,18.03
2023-03-05T01:25:15.156Z,18.77
2023-03-05T01:27:42.257Z,17.80
2023-03-05T01:30:10.366Z,19.40
2023-03-05T01:32:37.496Z,17.83
2023-03-05T01:35:05.881Z,20.13
2023-03-05T01:37:32.806Z,19.70
2023-03-05T01:39:59.846Z,18.77
2023-03-05T01:42:26.861Z,17.70
2023-03-05T01:45:20.466Z,19.10
2023-03-05T01:47:47.631Z,18.33
2023-03-05T01:50:19.491Z,18.30
2023-03-05T01:52:58.243Z,19.53
2023-03-05T01:55:28.428Z,19.60
2023-03-05T01:58:03.263Z,17.03
2023-03-05T02:00:35.428Z,19.23
2023-03-05T02:03:05.608Z,17.97
2023-03-05T02:05:35.489Z,18.57
2023-03-05T02:08:06.638Z,17.73
2023-03-05T02:10:38.791Z,18.80
2023-03-05T02:13:09.789Z,20.20
2023-03-05T02:15:38.534Z,19.17
2023-03-05T02:18:07.797Z,18.40
2023-03-05T02:21:00.232Z,18.43
2023-03-05T02:23:32.748Z,21.80
2023-03-05T02:26:00.311Z,18.77
2023-03-05T02:28:49.044Z,18.00
2023-03-05T02:31:20.176Z,19.10
2023-03-05T02:33:47.690Z,18.30
2023-03-05T02:36:16.022Z,18.30
2023-03-05T02:38:46.251Z,18.77
2023-03-05T02:41:14.386Z,20.60
2023-03-05T02:43:42.319Z,19.73
2023-03-05T02:46:12.512Z,19.87
2023-03-05T02:48:39.883Z,19.00
2023-03-05T02:51:09.476Z,18.93
2023-03-05T02:53:36.487Z,19.50
2023-03-05T02:56:04.406Z,18.33
2023-03-05T02:58:34.529Z,20.37
2023-03-05T03:01:01.626Z,17.93
2023-03-05T03:03:29.039Z,19.23
2023-03-05T03:05:55.961Z,18.57
2023-03-05T03:08:22.984Z,19.83
2023-03-05T03:10:49.887Z,19.83
2023-03-05T03:13:17.092Z,20.67
2023-03-05T03:15:44.180Z,18.83
2023-03-05T03:18:11.107Z,19.93
2023-03-05T03:20:39.235Z,17.87
2023-03-05T03:23:07.178Z,20.87
2023-03-05T03:25:34.819Z,18.87
2023-03-05T03:28:01.763Z,19.47
2023-03-05T03:30:28.725Z,19.07
2023-03-05T03:32:55.645Z,19.30
2023-03-05T03:35:22.681Z,18.57
2023-03-05T03:37:49.680Z,18.73
2023-03-05T03:40:16.986Z,21.53
2023-03-05T03:42:43.938Z,20.57
2023-03-05T03:45:11.375Z,18.93
2023-03-05T03:47:38.322Z,19.47
2023-03-05T03:50:05.761Z,18.57
2023-03-05T03:52:32.968Z,18.30
2023-03-05T03:55:02.088Z,19.17
2023-03-05T03:57:30.775Z,17.03
2023-03-05T03:59:57.724Z,17.83
2023-03-05T04:02:25.112Z,18.00
2023-03-05T04:04:52.941Z,18.13
2023-03-05T04:07:20.205Z,16.93
2023-03-05T04:09:47.270Z,18.77
2023-03-05T04:12:18.144Z,17.97
2023-03-05T04:14:47.061Z,18.07
2023-03-05T04:17:14.604Z,17.53
2023-03-05T04:19:42.259Z,17.83
2023-03-05T04:22:17.409Z,16.80
2023-03-05T04:24:45.053Z,17.23
2023-03-05T04:27:12.250Z,17.07
2023-03-05T04:29:39.236Z,17.20
2023-03-05T04:32:06.621Z,17.83
2023-03-05T04:34:33.925Z,17.87
2023-03-05T04:37:01.213Z,18.53
2023-03-05T04:39:28.649Z,20.23
2023-03-05T04:41:55.578Z,18.50
2023-03-05T04:44:25.302Z,19.63
2023-03-05T04:46:52.799Z,18.53
2023-03-05T04:49:19.779Z,18.13
2023-03-05T04:51:47.101Z,17.30
2023-03-05T04:54:14.198Z,18.37
2023-03-05T04:56:41.754Z,17.90
2023-03-05T04:59:08.682Z,18.83
2023-03-05T05:01:35.668Z,18.97
2023-03-05T05:04:02.686Z,19.03
2023-03-05T05:06:29.836Z,17.70
2023-03-05T05:08:56.823Z,19.60
2023-03-05T05:11:23.858Z,16.77
2023-03-05T05:13:50.781Z,17.10
2023-03-05T05:16:18.137Z,19.53
2023-03-05T05:18:45.330Z,19.73
2023-03-05T05:21:14.712Z,18.87
2023-03-05T05:23:41.965Z,20.23
2023-03-05T05:26:14.309Z,19.83
2023-03-05T05:28:43.704Z,19.80
2023-03-05T05:31:13.952Z,20.67
2023-03-05T05:33:41.806Z,19.97
2023-03-05T05:36:11.362Z,18.47
2023-03-05T05:38:39.061Z,21.97
2023-03-05T05:41:12.506Z,20.10
2023-03-05T05:43:40.865Z,24.53
2023-03-05T05:46:11.155Z,20.00
2023-03-05T05:48:38.797Z,20.30
2023-03-05T05:51:11.524Z,19.60
2023-03-05T05:53:39.643Z,19.67
2023-03-05T05:56:09.214Z,18.80
2023-03-05T05:58:37.798Z,17.87
2023-03-05T06:01:31.224Z,19.03
2023-03-05T06:03:59.469Z,18.90
2023-03-05T06:06:28.061Z,18.93
2023-03-05T06:08:55.564Z,19.30
2023-03-05T06:11:23.490Z,19.70
2023-03-05T06:13:51.178Z,18.20
2023-03-05T06:16:22.037Z,17.27
2023-03-05T06:18:49.034Z,18.70
2023-03-05T06:21:17.735Z,18.70
2023-03-05T06:23:46.260Z,20.30
2023-03-05T06:26:15.802Z,17.57
2023-03-05T06:28:42.962Z,18.80
2023-03-05T06:31:16.116Z,17.17
2023-03-05T06:33:43.575Z,18.23
2023-03-05T06:36:13.550Z,18.23
2023-03-05T06:38:41.099Z,22.60
2023-03-05T06:41:16.881Z,20.63
2023-03-05T06:43:45.438Z,20.23
2023-03-05T06:46:21.255Z,19.47
2023-03-05T06:48:49.368Z,20.17
2023-03-05T06:51:22.431Z,22.17
2023-03-05T06:53:49.777Z,21.33
2023-03-05T06:56:18.038Z,22.27
2023-03-05T06:58:46.555Z,22.83
2023-03-05T07:01:15.345Z,22.43
2023-03-05T07:03:43.591Z,22.40
2023-03-05T07:06:13.633Z,24.20
2023-03-05T07:08:40.595Z,23.23
2023-03-05T07:11:17.601Z,23.73
2023-03-05T07:13:49.693Z,25.87
2023-03-05T07:16:19.599Z,24.77
2023-03-05T07:18:46.646Z,25.27
2023-03-05T07:21:22.257Z,22.30
2023-03-05T07:23:50.051Z,21.23
2023-03-05T07:26:17.158Z,23.77
2023-03-05T07:28:44.403Z,22.10
2023-03-05T07:31:14.713Z,23.47
2023-03-05T07:33:42.032Z,23.40
2023-03-05T07:36:10.005Z,21.47
2023-03-05T07:38:37.636Z,22.07
2023-03-05T07:41:13.487Z,19.87
2023-03-05T07:43:41.165Z,22.50
2023-03-05T07:46:10.273Z,20.33
2023-03-05T07:48:37.524Z,20.43
2023-03-05T07:51:07.131Z,21.87
2023-03-05T07:53:34.191Z,21.90
2023-03-05T07:56:01.199Z,19.93
2023-03-05T07:58:28.296Z,21.37
2023-03-05T08:00:55.326Z,20.53
2023-03-05T08:03:22.327Z,19.90
2023-03-05T08:05:49.286Z,20.93
2023-03-05T08:08:16.628Z,20.67
2023-03-05T08:10:43.633Z,22.13
2023-03-05T08:13:10.796Z,20.50
2023-03-05T08:15:38.563Z,21.90
2023-03-05T08:18:05.602Z,21.27
2023-03-05T08:20:36.050Z,20.67
2023-03-05T08:23:04.751Z,22.97
2023-03-05T08:25:32.327Z,24.57
2023-03-05T08:28:00.471Z,22.40
2023-03-05T08:30:27.768Z,22.70
2023-03-05T08:32:55.633Z,22.20
2023-03-05T08:35:22.734Z,21.20
2023-03-05T08:37:50.218Z,22.47
2023-03-05T08:40:20.566Z,23.13
2023-03-05T08:42:47.658Z,22.33
2023-03-05T08:45:14.654Z,22.13
2023-03-05T08:47:41.630Z,21.33
2023-03-05T08:50:09.465Z,24.83
2023-03-05T08:52:36.461Z,22.80
2023-03-05T08:55:03.954Z,21.40
2023-03-05T08:57:30.871Z,22.75
2023-03-05T08:59:57.898Z,20.30
2023-03-05T09:02:24.922Z,22.33
2023-03-05T09:04:52.278Z,21.27
2023-03-05T09:07:19.302Z,21.87
2023-03-05T09:09:46.229Z,20.90
2023-03-05T09:12:13.466Z,23.13
2023-03-05T09:14:41.260Z,22.00
2023-03-05T09:17:09.017Z,21.33
2023-03-05T09:19:36.343Z,21.93
2023-03-05T09:22:03.674Z,22.13
2023-03-05T09:24:30.665Z,21.77
2023-03-05T09:27:00.596Z,21.07
2023-03-05T09:29:28.026Z,20.03
2023-03-05T09:31:55.060Z,20.57
2023-03-05T09:34:22.777Z,21.20
2023-03-05T09:36:50.180Z,22.90
2023-03-05T09:39:17.568Z,21.23
2023-03-05T09:42:28.245Z,22.80
2023-03-05T09:45:17.993Z,21.63
2023-03-05T09:47:58.599Z,21.57
2023-03-05T09:50:39.382Z,21.63
2023-03-05T09:53:21.177Z,19.97
2023-03-05T09:55:58.801Z,20.10
2023-03-05T09:58:45.958Z,20.37
2023-03-05T10:01:19.366Z,23.00
2023-03-05T10:04:12.475Z,21.93
2023-03-05T10:07:08.893Z,19.90
2023-03-05T10:09:43.434Z,21.00
2023-03-05T10:12:25.367Z,20.33
2023-03-05T10:14:56.224Z,19.53
2023-03-05T10:18:07.610Z,20.60
2023-03-05T10:21:11.936Z,19.75
2023-03-05T10:24:12.978Z,21.90
2023-03-05T10:27:18.541Z,31.57
2023-03-05T10:30:07.002Z,24.27
2023-03-05T10:33:11.858Z,19.87
2023-03-05T10:36:07.478Z,22.23
2023-03-05T10:38:40.416Z,22.37
2023-03-05T10:41:36.316Z,23.73
2023-03-05T10:44:22.617Z,21.27
2023-03-05T10:46:50.872Z,22.67
2023-03-05T10:49:23.542Z,19.60
2023-03-05T10:52:09.740Z,25.10
2023-03-05T10:54:42.110Z,25.77
2023-03-05T10:57:23.453Z,22.57
2023-03-05T10:59:58.799Z,27.27
2023-03-05T11:02:26.181Z,25.03
2023-03-05T11:04:57.913Z,23.10
2023-03-05T11:07:25.423Z,21.50
2023-03-05T11:10:04.422Z,20.27
2023-03-05T11:12:39.244Z,22.57
2023-03-05T11:15:09.746Z,22.43
2023-03-05T11:17:43.793Z,22.20
2023-03-05T11:20:29.846Z,20.37
2023-03-05T11:23:03.341Z,25.60
2023-03-05T11:25:31.486Z,22.92
2023-03-05T11:28:02.293Z,22.60
2023-03-05T11:30:36.014Z,19.70
2023-03-05T11:33:22.980Z,21.27
2023-03-05T11:35:53.067Z,21.83
2023-03-05T11:38:26.739Z,19.87
2023-03-05T11:40:57.254Z,20.90
2023-03-05T11:43:26.090Z,20.50
2023-03-05T11:46:03.765Z,21.57
2023-03-05T11:48:37.273Z,21.30
2023-03-05T11:51:18.932Z,21.30
2023-03-05T11:53:52.106Z,24.33
2023-03-05T11:56:26.270Z,23.03
2023-03-05T11:59:06.925Z,21.33
2023-03-05T12:01:45.857Z,20.40
2023-03-05T12:04:14.216Z,23.70
2023-03-05T12:07:03.854Z,25.20
2023-03-05T12:09:43.241Z,20.20
2023-03-05T12:12:54.909Z,20.47
2023-03-05T12:15:46.109Z,20.43
2023-03-05T12:18:43.498Z,20.37
2023-03-05T12:21:30.237Z,19.80
2023-03-05T12:24:02.933Z,20.93
2023-03-05T12:26:59.907Z,21.83
2023-03-05T12:29:47.506Z,21.53
2023-03-05T12:32:28.767Z,21.20
2023-03-05T12:34:57.295Z,20.13
2023-03-05T12:37:24.654Z,20.83
2023-03-05T12:40:12.417Z,20.70
2023-03-05T12:42:43.891Z,21.77
2023-03-05T12:45:17.737Z,22.87
2023-03-05T12:48:12.537Z,22.27
2023-03-05T12:50:39.944Z,19.67
2023-03-05T12:53:07.190Z,19.67
2023-03-05T12:55:35.896Z,22.47
2023-03-05T12:58:33.441Z,20.27
2023-03-05T13:01:40.654Z,20.23
2023-03-05T13:04:32.506Z,19.20
2023-03-05T13:07:16.670Z,12.67
2023-03-05T13:09:54.085Z,11.77
2023-03-05T13:12:22.779Z,10.63
2023-03-05T13:15:03.001Z,10.23
2023-03-05T13:17:35.013Z,7.83
2023-03-05T13:20:22.759Z,14.70
2023-03-05T13:23:14.605Z,12.53
2023-03-05T13:25:45.003Z,14.27
2023-03-05T13:28:17.570Z,13.13
2023-03-05T13:30:53.400Z,9.40
2023-03-05T13:33:27.474Z,8.90
2023-03-05T13:35:56.055Z,9.03
2023-03-05T13:38:28.248Z,9.33
2023-03-05T13:41:14.857Z,8.40
2023-03-05T13:43:57.645Z,7.23
2023-03-05T13:46:29.829Z,7.67
2023-03-05T13:49:16.138Z,7.17
2023-03-05T13:51:53.304Z,6.70
2023-03-05T13:54:22.999Z,7.17
2023-03-05T13:57:00.804Z,8.07
2023-03-05T13:59:31.447Z,10.10
2023-03-05T14:02:01.838Z,9.70
2023-03-05T14:04:36.537Z,7.67
2023-03-05T14:07:33.455Z,8.93
2023-03-05T14:10:03.715Z,8.23
2023-03-05T14:12:35.669Z,7.40
2023-03-05T14:15:09.405Z,8.73
2023-03-05T14:17:42.413Z,7.73
2023-03-05T14:20:28.426Z,8.40
2023-03-05T14:23:01.761Z,11.73
2023-03-05T14:25:40.309Z,7.43
2023-03-05T14:28:29.778Z,7.43
2023-03-05T14:30:58.377Z,8.57
2023-03-05T14:33:35.565Z,7.63
2023-03-05T14:36:06.192Z,6.37
2023-03-05T14:38:35.189Z,6.87
2023-03-05T14:41:36.564Z,7.13
2023-03-05T14:44:13.188Z,7.33
2023-03-05T14:46:43.587Z,8.53
2023-03-05T14:49:11.651Z,8.17
2023-03-05T14:51:44.058Z,7.83
2023-03-05T14:54:24.115Z,7.83
2023-03-05T14:56:54.398Z,8.30
2023-03-05T14:59:22.680Z,8.57
2023-03-05T15:01:51.434Z,10.07
2023-03-05T15:04:20.234Z,8.60
2023-03-05T15:06:51.486Z,7.93
2023-03-05T15:09:21.620Z,8.97
2023-03-05T15:11:51.147Z,7.50
2023-03-05T15:14:19.260Z,12.63
2023-03-05T15:16:49.438Z,7.80
2023-03-05T15:19:17.659Z,7.97
2023-03-05T15:21:46.238Z,7.47
2023-03-05T15:24:15.335Z,7.93
2023-03-05T15:26:44.456Z,6.27
2023-03-05T15:29:12.881Z,7.90
2023-03-05T15:31:41.052Z,8.47
2023-03-05T15:34:09.273Z,8.20
2023-03-05T15:36:37.608Z,8.07
2023-03-05T15:39:05.265Z,9.90
2023-03-05T15:41:33.340Z,7.63
2023-03-05T15:44:01.112Z,10.70
2023-03-05T15:46:29.871Z,7.73
2023-03-05T15:48:58.551Z,8.03
2023-03-05T15:51:26.460Z,6.97
2023-03-05T15:53:54.723Z,9.40
2023-03-05T15:56:22.954Z,11.77
2023-03-05T15:58:51.451Z,14.47
2023-03-05T16:01:21.432Z,14.40
2023-03-05T16:03:50.928Z,15.57
2023-03-05T16:06:24.011Z,14.30
2023-03-05T16:08:56.570Z,13.03
2023-03-05T16:11:27.930Z,11.23
2023-03-05T16:13:57.161Z,11.63
2023-03-05T16:16:26.141Z,9.53
2023-03-05T16:18:55.197Z,9.43
2023-03-05T16:21:23.023Z,9.20
2023-03-05T16:23:52.119Z,7.07
2023-03-05T16:26:20.573Z,7.77
2023-03-05T16:28:49.189Z,9.87
2023-03-05T16:31:17.508Z,12.50
2023-03-05T16:33:46.511Z,9.43
2023-03-05T16:36:24.136Z,7.90
2023-03-05T16:38:54.559Z,7.10
2023-03-05T16:41:24.530Z,8.60
2023-03-05T16:43:54.455Z,8.00
2023-03-05T16:46:22.933Z,11.10
2023-03-05T16:48:50.581Z,16.67
2023-03-05T16:51:20.527Z,15.03
2023-03-05T16:53:50.200Z,10.80
2023-03-05T16:56:18.966Z,14.50
2023-03-05T16:58:47.599Z,13.10
2023-03-05T17:01:19.553Z,17.47
2023-03-05T17:03:49.050Z,18.80
2023-03-05T17:06:25.801Z,17.33
2023-03-05T17:08:55.460Z,13.27
2023-03-05T17:11:24.389Z,8.20
2023-03-05T17:13:53.137Z,8.93
2023-03-05T17:16:21.887Z,8.00
2023-03-05T17:18:49.985Z,6.90
2023-03-05T17:21:18.322Z,9.90
2023-03-05T17:23:46.584Z,8.00
2023-03-05T17:26:18.478Z,9.57
2023-03-05T17:28:47.131Z,10.00
2023-03-05T17:31:16.361Z,11.17
2023-03-05T17:33:45.654Z,15.80
2023-03-05T17:36:16.627Z,13.00
2023-03-05T17:38:46.943Z,12.37
2023-03-05T17:41:16.287Z,14.17
2023-03-05T17:43:45.600Z,15.13
2023-03-05T17:46:17.643Z,13.10
2023-03-05T17:48:53.746Z,11.40
2023-03-05T17:51:23.118Z,11.67
2023-03-05T17:53:51.074Z,10.87
2023-03-05T17:56:23.119Z,9.60
2023-03-05T17:58:53.245Z,11.20
2023-03-05T18:01:30.847Z,9.37
2023-03-05T18:04:00.253Z,10.13
2023-03-05T18:06:30.966Z,12.10
2023-03-05T18:08:59.392Z,11.53
2023-03-05T18:11:28.268Z,8.37
2023-03-05T18:13:57.422Z,8.73
2023-03-05T18:16:25.892Z,10.63
2023-03-05T18:18:59.721Z,7.13
2023-03-05T18:21:28.299Z,7.03
2023-03-05T18:23:56.171Z,6.55
2023-03-05T18:26:24.194Z,6.88
2023-03-05T18:28:52.374Z,8.97
2023-03-05T18:31:20.675Z,6.67
2023-03-05T18:33:48.912Z,7.73
2023-03-05T18:36:17.138Z,7.75
2023-03-05T18:38:46.683Z,9.03
2023-03-05T18:41:24.356Z,9.67
2023-03-05T18:44:00.144Z,8.07
2023-03-05T18:46:29.676Z,8.03
2023-03-05T18:49:01.598Z,8.30
2023-03-05T18:51:33.473Z,8.77
2023-03-05T18:54:07.656Z,7.33
2023-03-05T18:56:41.208Z,7.30
2023-03-05T18:59:40.745Z,8.30
2023-03-05T19:02:23.068Z,9.13
2023-03-05T19:04:54.514Z,6.90
2023-03-05T19:07:28.791Z,7.53
2023-03-05T19:10:11.167Z,7.37
2023-03-05T19:13:14.727Z,7.83
2023-03-05T19:15:50.713Z,8.00
2023-03-05T19:18:30.443Z,7.67
2023-03-05T19:21:02.241Z,7.20
2023-03-05T19:23:33.667Z,9.77
2023-03-05T19:26:10.052Z,10.87
2023-03-05T19:28:46.416Z,11.07
2023-03-05T19:31:17.014Z,8.25
2023-03-05T19:33:49.334Z,6.72
2023-03-05T19:36:21.287Z,7.05
2023-03-05T19:38:52.699Z,8.30
2023-03-05T19:41:26.439Z,7.80
2023-03-05T19:43:57.463Z,8.30
2023-03-05T19:46:29.546Z,7.63
2023-03-05T19:49:00.959Z,7.23
2023-03-05T19:51:36.796Z,9.23
2023-03-05T19:54:06.281Z,7.63
2023-03-05T19:56:39.244Z,8.07
2023-03-05T19:59:17.172Z,8.43
2023-03-05T20:01:49.468Z,8.93
2023-03-05T20:04:27.493Z,11.75
2023-03-05T20:07:11.081Z,10.50
2023-03-05T20:09:48.291Z,9.02
2023-03-05T20:12:17.405Z,10.10
2023-03-05T20:14:56.195Z,8.93
2023-03-05T20:17:29.938Z,10.50
2023-03-05T20:20:07.319Z,8.03
2023-03-05T20:22:40.353Z,8.67
2023-03-05T20:25:17.450Z,9.47
2023-03-05T20:27:53.973Z,7.73
2023-03-05T20:30:36.360Z,9.27
2023-03-05T20:33:11.258Z,7.30
2023-03-05T20:35:42.300Z,9.07
2023-03-05T20:38:26.635Z,9.10
2023-03-05T20:41:05.381Z,7.63
2023-03-05T20:43:41.481Z,7.47
2023-03-05T20:46:43.391Z,8.40
2023-03-05T20:49:18.051Z,8.20
2023-03-05T20:52:05.733Z,8.93
2023-03-05T20:54:35.495Z,7.53
2023-03-05T20:57:07.624Z,7.73
2023-03-05T20:59:40.356Z,7.80
2023-03-05T21:02:25.441Z,7.60
2023-03-05T21:04:56.267Z,7.20
2023-03-05T21:07:34.494Z,7.70
2023-03-05T21:10:07.954Z,7.73
2023-03-05T21:12:47.906Z,7.10
2023-03-05T21:15:21.995Z,8.27
2023-03-05T21:17:54.988Z,7.93
2023-03-05T21:20:30.706Z,7.73
2023-03-05T21:23:13.078Z,8.03
2023-03-05T21:25:42.148Z,7.70
2023-03-05T21:28:24.717Z,9.00
2023-03-05T21:30:58.564Z,8.80
2023-03-05T21:33:32.638Z,9.20
2023-03-05T21:36:08.755Z,8.10
2023-03-05T21:38:38.158Z,8.57
2023-03-05T21:41:11.139Z,7.13
2023-03-05T21:43:43.070Z,10.50
2023-03-05T21:46:14.668Z,9.43
2023-03-05T21:48:45.343Z,8.07
2023-03-05T21:51:17.629Z,9.67
2023-03-05T21:53:47.647Z,7.87
2023-03-05T21:56:19.860Z,8.70
2023-03-05T21:58:52.823Z,9.17
2023-03-05T22:01:23.185Z,8.07
2023-03-05T22:03:54.370Z,9.47
2023-03-05T22:06:23.524Z,7.90
2023-03-05T22:08:56.667Z,7.67
2023-03-05T22:11:25.058Z,8.00
2023-03-05T22:13:56.985Z,8.17
2023-03-05T22:16:27.949Z,8.17
2023-03-05T22:18:59.431Z,8.93
2023-03-05T22:21:31.647Z,9.07
2023-03-05T22:24:00.132Z,11.80
2023-03-05T22:26:47.087Z,8.60
2023-03-05T22:29:20.174Z,8.80
2023-03-05T22:31:51.372Z,8.37
2023-03-05T22:34:22.539Z,10.17
2023-03-05T22:36:53.382Z,9.70
2023-03-05T22:39:25.537Z,9.37
2023-03-05T22:41:55.551Z,11.43
2023-03-05T22:44:25.114Z,15.83
2023-03-05T22:46:55.421Z,12.80
2023-03-05T22:49:25.466Z,14.63
2023-03-05T22:51:56.323Z,13.17
2023-03-05T22:54:27.195Z,13.33
2023-03-05T22:56:58.772Z,11.37
2023-03-05T22:59:25.730Z,12.57
2023-03-05T23:01:55.285Z,11.57
2023-03-05T23:04:52.144Z,9.23
2023-03-05T23:07:41.229Z,9.00
2023-03-05T23:10:33.676Z,10.43
2023-03-05T23:13:04.577Z,11.67
2023-03-05T23:15:35.941Z,11.47
2023-03-05T23:18:09.558Z,10.87
2023-03-05T23:20:40.904Z,10.33
2023-03-05T23:23:11.510Z,11.90
2023-03-05T23:25:42.156Z,11.20
2023-03-05T23:28:09.162Z,10.10
2023-03-05T23:30:46.845Z,11.70
2023-03-05T23:33:37.689Z,10.63
2023-03-05T23:36:04.944Z,12.80
2023-03-05T23:38:33.472Z,13.10
2023-03-05T23:41:07.874Z,10.90
2023-03-05T23:43:38.608Z,9.87
2023-03-05T23:46:13.663Z,9.63
2023-03-05T23:48:45.120Z,9.97
2023-03-05T23:51:15.523Z,11.80
2023-03-05T23:53:47.648Z,12.63
2023-03-05T23:56:18.970Z,10.73
2023-03-05T23:58:48.001Z,9.13
